Time;durP1;ratioP1;P1;durP2;ratioP2;P2;SDS_P1;SDS_P2;PMS_P1;PMS_P2;Temp;Humidity;BMP_temperature;BMP_pressure;BME280_temperature;BME280_humidity;BME280_pressure;Samples;Min_cycle;Max_cycle;Signal;HPM_P1;HPM_P2
2022/10/14 00:00:22;;;;;;;19.45;11.68;;;;;;;;;;5008522;28;20219;-55
2022/10/14 00:02:49;;;;;;;18.60;12.07;;;;;;;;;;5022109;28;20310;-54
2022/10/14 00:05:15;;;;;;;19.23;12.87;;;;;;;;;;5025552;28;20302;-54
2022/10/14 00:07:43;;;;;;;16.50;11.53;;;;;;;;;;5026957;28;20282;-53
2022/10/14 00:10:09;;;;;;;18.00;11.67;;;;;;;;;;5024927;28;20294;-55
2022/10/14 00:12:35;;;;;;;19.07;12.40;;;;;;;;;;5026942;28;20298;-55
2022/10/14 00:15:02;;;;;;;18.63;11.70;;;;;;;;;;5018840;28;20573;-55
2022/10/14 00:17:28;;;;;;;18.80;11.50;;;;;;;;;;5008024;28;20365;-55
2022/10/14 00:19:55;;;;;;;20.83;12.47;;;;;;;;;;5023525;28;20839;-56
2022/10/14 00:22:21;;;;;;;16.40;11.40;;;;;;;;;;5009669;28;20306;-55
2022/10/14 00:24:47;;;;;;;18.67;11.80;;;;;;;;;;5027092;28;20294;-55
2022/10/14 00:27:14;;;;;;;16.10;11.07;;;;;;;;;;5018763;28;20203;-55
2022/10/14 00:29:40;;;;;;;17.57;11.33;;;;;;;;;;5023620;28;20283;-55
2022/10/14 00:32:07;;;;;;;18.03;11.47;;;;;;;;;;5027849;28;20219;-55
2022/10/14 00:34:34;;;;;;;17.40;11.57;;;;;;;;;;5029000;28;20278;-56
2022/10/14 00:37:00;;;;;;;19.77;12.53;;;;;;;;;;5032111;28;20690;-55
2022/10/14 00:39:26;;;;;;;17.27;11.37;;;;;;;;;;5026887;28;20636;-54
2022/10/14 00:41:53;;;;;;;17.90;11.00;;;;;;;;;;5028432;28;20294;-56
2022/10/14 00:44:19;;;;;;;17.73;11.20;;;;;;;;;;5029868;28;20275;-55
2022/10/14 00:46:47;;;;;;;18.37;11.43;;;;;;;;;;5024720;28;20224;-56
2022/10/14 00:49:21;;;;;;;17.03;11.57;;;;;;;;;;5030742;28;20279;-56
2022/10/14 00:52:14;;;;;;;16.07;11.17;;;;;;;;;;5022507;28;20342;-55
2022/10/14 00:54:44;;;;;;;17.50;11.33;;;;;;;;;;5014548;28;20231;-55
2022/10/14 00:57:11;;;;;;;16.93;11.13;;;;;;;;;;5013738;28;20292;-55
2022/10/14 00:59:37;;;;;;;17.40;11.13;;;;;;;;;;5013231;28;20311;-56
2022/10/14 01:02:04;;;;;;;16.80;10.70;;;;;;;;;;5010618;28;20638;-56
2022/10/14 01:04:30;;;;;;;17.00;10.93;;;;;;;;;;5028882;28;20361;-56
2022/10/14 01:07:15;;;;;;;15.77;10.63;;;;;;;;;;5030651;28;20202;-57
2022/10/14 01:09:53;;;;;;;16.33;10.80;;;;;;;;;;5029741;28;20286;-54
2022/10/14 01:12:38;;;;;;;16.13;10.47;;;;;;;;;;5028254;28;20219;-55
2022/10/14 01:15:17;;;;;;;16.77;10.63;;;;;;;;;;5029652;28;20279;-56
2022/10/14 01:18:06;;;;;;;14.43;10.00;;;;;;;;;;5010758;28;20300;-56
2022/10/14 01:20:43;;;;;;;16.33;11.63;;;;;;;;;;5011581;28;20455;-55
2022/10/14 01:23:48;;;;;;;17.15;10.88;;;;;;;;;;5030228;28;20279;-55
2022/10/14 01:26:24;;;;;;;16.83;10.33;;;;;;;;;;5013430;28;20308;-56
2022/10/14 01:29:09;;;;;;;15.57;10.10;;;;;;;;;;5029099;28;20286;-55
2022/10/14 01:31:37;;;;;;;17.23;10.80;;;;;;;;;;5022415;28;20306;-55
2022/10/14 01:34:06;;;;;;;15.50;10.43;;;;;;;;;;5014218;28;20279;-54
2022/10/14 01:36:36;;;;;;;14.63;9.97;;;;;;;;;;5011434;28;20287;-56
2022/10/14 01:39:10;;;;;;;15.97;10.40;;;;;;;;;;5010064;28;20283;-55
2022/10/14 01:41:44;;;;;;;15.00;9.53;;;;;;;;;;5011020;28;20318;-55
2022/10/14 01:44:11;;;;;;;14.03;9.50;;;;;;;;;;5010395;28;20202;-56
2022/10/14 01:46:39;;;;;;;15.37;10.00;;;;;;;;;;5023149;28;20302;-56
2022/10/14 01:49:13;;;;;;;15.97;10.47;;;;;;;;;;5010891;28;20274;-55
2022/10/14 01:51:47;;;;;;;14.40;9.67;;;;;;;;;;5009303;28;20307;-54
2022/10/14 01:54:17;;;;;;;13.93;9.03;;;;;;;;;;5011103;28;20233;-55
2022/10/14 01:56:45;;;;;;;13.93;9.40;;;;;;;;;;5026909;28;20295;-56
2022/10/14 01:59:13;;;;;;;15.30;10.10;;;;;;;;;;5016489;28;20652;-53
2022/10/14 02:01:39;;;;;;;14.00;9.37;;;;;;;;;;5008672;28;20790;-56
2022/10/14 02:04:19;;;;;;;15.10;9.73;;;;;;;;;;5026233;28;20667;-54
2022/10/14 02:07:11;;;;;;;14.73;9.60;;;;;;;;;;5021251;28;20913;-54
2022/10/14 02:10:12;;;;;;;13.83;9.57;;;;;;;;;;5013381;28;20278;-54
2022/10/14 02:12:56;;;;;;;13.03;9.03;;;;;;;;;;5009785;28;20294;-53
2022/10/14 02:15:40;;;;;;;13.90;9.30;;;;;;;;;;5004043;28;20279;-54
2022/10/14 02:18:37;;;;;;;15.40;9.70;;;;;;;;;;5007270;28;20290;-55
2022/10/14 02:21:16;;;;;;;14.77;9.43;;;;;;;;;;5000605;28;20283;-55
2022/10/14 02:23:47;;;;;;;14.97;9.37;;;;;;;;;;5029269;28;20287;-55
2022/10/14 02:26:14;;;;;;;14.40;9.73;;;;;;;;;;5010909;28;20306;-53
2022/10/14 02:28:42;;;;;;;12.93;8.90;;;;;;;;;;5028259;28;20282;-55
2022/10/14 02:31:12;;;;;;;15.23;10.03;;;;;;;;;;5008013;28;20670;-55
2022/10/14 02:33:41;;;;;;;14.10;9.30;;;;;;;;;;5010603;28;20290;-55
2022/10/14 02:36:09;;;;;;;12.27;8.47;;;;;;;;;;5008489;28;20651;-55
2022/10/14 02:38:37;;;;;;;12.47;8.37;;;;;;;;;;5011148;28;20306;-55
2022/10/14 02:41:05;;;;;;;12.57;8.80;;;;;;;;;;5006657;28;20237;-55
2022/10/14 02:43:32;;;;;;;13.27;9.07;;;;;;;;;;5011120;28;20278;-55
2022/10/14 02:46:00;;;;;;;12.97;8.70;;;;;;;;;;5011600;28;20307;-54
2022/10/14 02:48:27;;;;;;;12.13;8.80;;;;;;;;;;5006299;28;20290;-56
2022/10/14 02:50:53;;;;;;;11.70;8.40;;;;;;;;;;5023514;28;20767;-53
2022/10/14 02:53:20;;;;;;;13.43;8.63;;;;;;;;;;5028429;28;20290;-55
2022/10/14 02:55:46;;;;;;;12.50;8.40;;;;;;;;;;5026145;28;20278;-52
2022/10/14 02:58:12;;;;;;;12.70;9.27;;;;;;;;;;5028579;28;20734;-54
2022/10/14 03:00:39;;;;;;;12.70;8.37;;;;;;;;;;5025238;28;20278;-53
2022/10/14 03:03:05;;;;;;;13.57;8.90;;;;;;;;;;5028490;28;20258;-54
2022/10/14 03:05:32;;;;;;;13.57;9.40;;;;;;;;;;5027076;28;20298;-54
2022/10/14 03:07:58;;;;;;;12.63;8.67;;;;;;;;;;5026682;28;20739;-55
2022/10/14 03:10:24;;;;;;;13.97;8.77;;;;;;;;;;5027350;28;20282;-55
2022/10/14 03:12:51;;;;;;;12.70;8.20;;;;;;;;;;5027559;28;20223;-54
2022/10/14 03:15:17;;;;;;;11.63;8.13;;;;;;;;;;5026985;28;20283;-53
2022/10/14 03:17:43;;;;;;;12.83;8.87;;;;;;;;;;5028789;28;20622;-55
2022/10/14 03:20:10;;;;;;;11.87;8.23;;;;;;;;;;5022408;28;20286;-56
2022/10/14 03:22:36;;;;;;;11.80;7.93;;;;;;;;;;5016466;28;20313;-56
2022/10/14 03:25:03;;;;;;;13.10;8.73;;;;;;;;;;5020096;28;20282;-56
2022/10/14 03:27:29;;;;;;;12.70;8.27;;;;;;;;;;5024045;28;20299;-55
2022/10/14 03:29:55;;;;;;;11.20;7.90;;;;;;;;;;5024115;28;20657;-56
2022/10/14 03:32:22;;;;;;;11.80;7.90;;;;;;;;;;5026441;28;20234;-55
2022/10/14 03:34:48;;;;;;;12.60;8.53;;;;;;;;;;5024278;28;20207;-55
2022/10/14 03:37:15;;;;;;;12.03;8.30;;;;;;;;;;5025169;28;20239;-55
2022/10/14 03:39:41;;;;;;;13.03;8.53;;;;;;;;;;5026821;28;20291;-56
2022/10/14 03:42:07;;;;;;;11.67;7.90;;;;;;;;;;5027959;28;20215;-56
2022/10/14 03:44:34;;;;;;;11.30;8.10;;;;;;;;;;5026949;28;20290;-56
2022/10/14 03:47:00;;;;;;;11.50;8.23;;;;;;;;;;5021421;28;20312;-54
2022/10/14 03:49:26;;;;;;;11.70;8.13;;;;;;;;;;5022739;28;20238;-55
2022/10/14 03:51:53;;;;;;;11.70;8.00;;;;;;;;;;5017965;28;20306;-56
2022/10/14 03:54:19;;;;;;;11.07;7.77;;;;;;;;;;5022137;28;20676;-55
2022/10/14 03:56:45;;;;;;;11.00;7.60;;;;;;;;;;5024063;28;20663;-55
2022/10/14 03:59:12;;;;;;;12.07;8.10;;;;;;;;;;5027321;28;20287;-54
2022/10/14 04:01:38;;;;;;;11.27;7.63;;;;;;;;;;5023464;28;20303;-55
2022/10/14 04:04:04;;;;;;;12.13;7.90;;;;;;;;;;5023557;28;20207;-56
2022/10/14 04:06:31;;;;;;;11.60;7.47;;;;;;;;;;5028115;28;20648;-56
2022/10/14 04:08:57;;;;;;;12.30;7.97;;;;;;;;;;5032593;28;20200;-56
2022/10/14 04:11:23;;;;;;;11.23;7.83;;;;;;;;;;5029957;28;20302;-56
2022/10/14 04:13:50;;;;;;;11.75;8.15;;;;;;;;;;5030263;28;20860;-56
2022/10/14 04:16:16;;;;;;;10.60;7.47;;;;;;;;;;5031457;28;20204;-56
2022/10/14 04:18:42;;;;;;;11.20;7.70;;;;;;;;;;5031108;28;20199;-56
2022/10/14 04:21:10;;;;;;;12.13;7.97;;;;;;;;;;5027083;28;20275;-54
2022/10/14 04:23:37;;;;;;;11.10;7.60;;;;;;;;;;5031289;28;20202;-55
2022/10/14 04:26:05;;;;;;;10.67;7.30;;;;;;;;;;5020448;28;20302;-55
2022/10/14 04:28:32;;;;;;;9.57;7.17;;;;;;;;;;5023450;28;20297;-55
2022/10/14 04:30:58;;;;;;;10.73;7.30;;;;;;;;;;5024003;28;20199;-55
2022/10/14 04:33:25;;;;;;;11.27;7.43;;;;;;;;;;5029094;28;20282;-55
2022/10/14 04:36:03;;;;;;;10.53;7.57;;;;;;;;;;5030340;28;20286;-55
2022/10/14 04:38:30;;;;;;;9.80;7.17;;;;;;;;;;5030006;28;20673;-56
2022/10/14 04:40:56;;;;;;;12.30;7.77;;;;;;;;;;5028507;28;20210;-56
2022/10/14 04:43:23;;;;;;;9.87;7.63;;;;;;;;;;5027408;28;20683;-56
2022/10/14 04:45:49;;;;;;;10.87;7.20;;;;;;;;;;5022775;28;20223;-54
2022/10/14 04:48:17;;;;;;;11.77;7.73;;;;;;;;;;5032722;28;20227;-55
2022/10/14 04:50:43;;;;;;;9.73;6.90;;;;;;;;;;5029086;28;20282;-55
2022/10/14 04:53:10;;;;;;;11.73;7.37;;;;;;;;;;5026543;28;20255;-55
2022/10/14 04:55:39;;;;;;;11.77;7.60;;;;;;;;;;5027863;28;20241;-55
2022/10/14 04:58:05;;;;;;;11.00;7.77;;;;;;;;;;5023717;28;20282;-55
2022/10/14 05:00:32;;;;;;;9.23;6.87;;;;;;;;;;5029735;28;20200;-56
2022/10/14 05:02:58;;;;;;;10.27;7.70;;;;;;;;;;5023731;28;20314;-56
2022/10/14 05:05:24;;;;;;;10.67;7.40;;;;;;;;;;5024940;28;20306;-57
2022/10/14 05:07:50;;;;;;;10.90;6.90;;;;;;;;;;5029511;28;20664;-56
2022/10/14 05:10:17;;;;;;;11.50;7.80;;;;;;;;;;5031254;28;20283;-52
2022/10/14 05:12:43;;;;;;;8.17;5.53;;;;;;;;;;5027454;28;20223;-56
2022/10/14 05:15:11;;;;;;;9.47;6.50;;;;;;;;;;5023758;28;20209;-54
2022/10/14 05:17:38;;;;;;;7.80;6.10;;;;;;;;;;5027005;28;20667;-52
2022/10/14 05:20:05;;;;;;;12.80;6.20;;;;;;;;;;5030525;28;20738;-51
2022/10/14 05:22:31;;;;;;;7.17;5.20;;;;;;;;;;5028790;28;20254;-51
2022/10/14 05:24:58;;;;;;;8.13;5.60;;;;;;;;;;5019391;28;20284;-53
2022/10/14 05:27:24;;;;;;;9.23;6.00;;;;;;;;;;5028841;28;20781;-54
2022/10/14 05:29:50;;;;;;;10.97;5.90;;;;;;;;;;5030317;28;20747;-54
2022/10/14 05:32:17;;;;;;;10.00;5.83;;;;;;;;;;5026385;28;20306;-54
2022/10/14 05:34:43;;;;;;;8.43;5.67;;;;;;;;;;5029169;28;20203;-51
2022/10/14 05:37:09;;;;;;;9.47;5.60;;;;;;;;;;5029781;28;20688;-51
2022/10/14 05:39:36;;;;;;;8.80;6.10;;;;;;;;;;5027654;28;20207;-53
2022/10/14 05:42:02;;;;;;;8.50;5.90;;;;;;;;;;5027916;28;20626;-53
2022/10/14 05:44:28;;;;;;;12.37;5.73;;;;;;;;;;5027982;28;20278;-53
2022/10/14 05:46:55;;;;;;;9.13;5.40;;;;;;;;;;5027515;28;20716;-55
2022/10/14 05:49:21;;;;;;;12.40;6.67;;;;;;;;;;5023417;28;20234;-53
2022/10/14 05:51:48;;;;;;;9.90;6.70;;;;;;;;;;5029015;28;20302;-54
2022/10/14 05:54:14;;;;;;;11.10;6.70;;;;;;;;;;5027208;28;20639;-53
2022/10/14 05:56:40;;;;;;;12.77;6.87;;;;;;;;;;5032459;28;20282;-51
2022/10/14 05:59:09;;;;;;;10.20;6.53;;;;;;;;;;5032492;28;20192;-52
2022/10/14 06:01:36;;;;;;;11.53;7.23;;;;;;;;;;5029779;28;20311;-55
2022/10/14 06:04:03;;;;;;;12.00;7.33;;;;;;;;;;5018970;28;21300;-53
2022/10/14 06:06:29;;;;;;;13.47;7.27;;;;;;;;;;5028080;28;20219;-54
2022/10/14 06:08:56;;;;;;;13.50;7.60;;;;;;;;;;5026320;28;20286;-54
2022/10/14 06:11:22;;;;;;;13.40;7.43;;;;;;;;;;5024622;28;20225;-53
2022/10/14 06:13:49;;;;;;;11.73;7.53;;;;;;;;;;5027525;28;20290;-52
2022/10/14 06:16:15;;;;;;;10.87;6.93;;;;;;;;;;5029271;28;20274;-54
2022/10/14 06:18:41;;;;;;;9.03;6.70;;;;;;;;;;5028991;28;20279;-55
2022/10/14 06:21:08;;;;;;;7.13;5.77;;;;;;;;;;5025408;28;20195;-53
2022/10/14 06:23:34;;;;;;;9.13;6.10;;;;;;;;;;5008917;28;20200;-53
2022/10/14 06:26:05;;;;;;;9.83;5.80;;;;;;;;;;5008661;28;20290;-54
2022/10/14 06:28:31;;;;;;;8.23;6.17;;;;;;;;;;5026646;28;20646;-53
2022/10/14 06:30:58;;;;;;;9.43;5.83;;;;;;;;;;5026202;28;20207;-53
2022/10/14 06:33:27;;;;;;;8.47;5.83;;;;;;;;;;5028194;28;20279;-52
2022/10/14 06:35:53;;;;;;;9.30;5.73;;;;;;;;;;5025929;28;20237;-54
2022/10/14 06:38:19;;;;;;;10.37;5.87;;;;;;;;;;5024184;28;20743;-55
2022/10/14 06:40:49;;;;;;;9.57;6.90;;;;;;;;;;5006894;28;20713;-50
2022/10/14 06:43:15;;;;;;;10.87;6.23;;;;;;;;;;5032857;28;20249;-54
2022/10/14 06:45:41;;;;;;;9.07;5.97;;;;;;;;;;5029467;28;20221;-53
2022/10/14 06:48:08;;;;;;;9.20;6.30;;;;;;;;;;5025006;28;20322;-55
2022/10/14 06:50:37;;;;;;;9.23;6.23;;;;;;;;;;5025652;28;20203;-53
2022/10/14 06:53:04;;;;;;;9.00;5.83;;;;;;;;;;5009158;28;20223;-54
2022/10/14 06:55:31;;;;;;;9.03;6.53;;;;;;;;;;5005690;28;20224;-61
2022/10/14 06:57:57;;;;;;;13.63;7.80;;;;;;;;;;5026790;28;20650;-53
2022/10/14 07:00:24;;;;;;;13.43;8.40;;;;;;;;;;5024593;28;20258;-53
2022/10/14 07:02:50;;;;;;;16.70;9.53;;;;;;;;;;5025321;28;20338;-54
2022/10/14 07:05:16;;;;;;;15.67;9.73;;;;;;;;;;5021297;28;20322;-55
2022/10/14 07:07:43;;;;;;;15.80;10.87;;;;;;;;;;4988719;28;20623;-55
2022/10/14 07:10:09;;;;;;;14.27;9.83;;;;;;;;;;5033902;28;20195;-56
2022/10/14 07:12:36;;;;;;;15.98;10.43;;;;;;;;;;5029782;28;20215;-57
2022/10/14 07:15:03;;;;;;;16.17;10.20;;;;;;;;;;5012194;28;20222;-57
2022/10/14 07:17:30;;;;;;;17.03;9.73;;;;;;;;;;5010551;28;20279;-57
2022/10/14 07:19:56;;;;;;;16.63;9.80;;;;;;;;;;5029728;28;20199;-57
2022/10/14 07:22:23;;;;;;;13.37;9.50;;;;;;;;;;5029771;28;20215;-57
2022/10/14 07:24:50;;;;;;;17.57;10.00;;;;;;;;;;5010178;28;20200;-57
2022/10/14 07:27:19;;;;;;;14.93;9.90;;;;;;;;;;5030214;28;20298;-57
2022/10/14 07:29:46;;;;;;;15.07;9.20;;;;;;;;;;5009371;28;20203;-56
2022/10/14 07:32:12;;;;;;;15.40;9.97;;;;;;;;;;5022542;28;20305;-55
2022/10/14 07:34:39;;;;;;;17.50;10.00;;;;;;;;;;4993747;28;20633;-54
2022/10/14 07:37:05;;;;;;;16.37;9.40;;;;;;;;;;5026797;28;20635;-56
2022/10/14 07:39:32;;;;;;;13.40;8.20;;;;;;;;;;4991280;28;20637;-57
2022/10/14 07:41:59;;;;;;;11.20;7.90;;;;;;;;;;5004998;28;20219;-56
2022/10/14 07:44:25;;;;;;;12.67;8.83;;;;;;;;;;5026698;28;20565;-56
2022/10/14 07:46:53;;;;;;;14.63;8.63;;;;;;;;;;5001972;28;20506;-56
2022/10/14 07:49:20;;;;;;;11.37;8.03;;;;;;;;;;5004847;28;20253;-57
2022/10/14 07:51:47;;;;;;;17.40;10.07;;;;;;;;;;5024134;28;20219;-54
2022/10/14 07:54:17;;;;;;;21.13;10.40;;;;;;;;;;5024397;28;20290;-55
2022/10/14 07:56:44;;;;;;;12.37;8.67;;;;;;;;;;5022453;28;20756;-54
2022/10/14 07:59:10;;;;;;;13.13;8.80;;;;;;;;;;5026041;28;20235;-55
2022/10/14 08:01:37;;;;;;;14.07;8.83;;;;;;;;;;5019558;28;20223;-55
2022/10/14 08:04:04;;;;;;;12.90;9.03;;;;;;;;;;5015491;28;20207;-52
2022/10/14 08:06:30;;;;;;;14.00;8.30;;;;;;;;;;5017979;28;20282;-54
2022/10/14 08:08:56;;;;;;;14.33;8.53;;;;;;;;;;5028004;28;20286;-54
2022/10/14 08:11:26;;;;;;;11.87;8.30;;;;;;;;;;5027910;28;20302;-55
2022/10/14 08:13:52;;;;;;;9.70;7.57;;;;;;;;;;5007462;28;20766;-52
2022/10/14 08:16:21;;;;;;;13.03;8.97;;;;;;;;;;5021626;28;20290;-55
2022/10/14 08:18:47;;;;;;;13.60;8.10;;;;;;;;;;5024135;28;20294;-55
2022/10/14 08:21:14;;;;;;;11.60;8.23;;;;;;;;;;5018139;28;21592;-55
2022/10/14 08:23:40;;;;;;;11.10;7.87;;;;;;;;;;5016296;28;20192;-52
2022/10/14 08:26:20;;;;;;;11.45;8.27;;;;;;;;;;5014763;28;20295;-54
2022/10/14 08:28:47;;;;;;;12.55;8.63;;;;;;;;;;5007126;28;20347;-52
2022/10/14 08:31:14;;;;;;;12.30;7.97;;;;;;;;;;5017096;28;20546;-55
2022/10/14 08:33:40;;;;;;;11.40;8.00;;;;;;;;;;5021286;28;20648;-52
2022/10/14 08:36:07;;;;;;;12.70;7.80;;;;;;;;;;5020876;28;20288;-52
2022/10/14 08:38:34;;;;;;;12.45;8.20;;;;;;;;;;5025688;28;20299;-51
2022/10/14 08:41:15;;;;;;;12.33;8.40;;;;;;;;;;5018548;28;20290;-52
2022/10/14 08:43:51;;;;;;;11.98;8.15;;;;;;;;;;5021360;28;20227;-51
2022/10/14 08:46:23;;;;;;;13.07;8.60;;;;;;;;;;5005166;28;20287;-52
2022/10/14 08:48:54;;;;;;;11.73;8.00;;;;;;;;;;5021138;28;21099;-54
2022/10/14 08:51:21;;;;;;;12.85;8.10;;;;;;;;;;5026743;28;20307;-54
2022/10/14 08:53:58;;;;;;;12.20;7.88;;;;;;;;;;5013748;28;20286;-53
2022/10/14 08:56:25;;;;;;;12.63;8.40;;;;;;;;;;5011819;28;20286;-54
2022/10/14 08:58:53;;;;;;;15.40;9.05;;;;;;;;;;5029054;28;20738;-53
2022/10/14 09:01:30;;;;;;;13.90;8.10;;;;;;;;;;5005722;28;20303;-54
2022/10/14 09:04:03;;;;;;;12.45;8.10;;;;;;;;;;5025256;28;20261;-52
2022/10/14 09:06:34;;;;;;;13.80;8.15;;;;;;;;;;5011447;28;20204;-52
2022/10/14 09:09:07;;;;;;;11.88;7.80;;;;;;;;;;5008175;28;20212;-53
2022/10/14 09:11:39;;;;;;;9.18;6.88;;;;;;;;;;5029836;28;20766;-53
2022/10/14 09:14:08;;;;;;;10.65;7.88;;;;;;;;;;5020487;28;20735;-55
2022/10/14 09:16:37;;;;;;;11.35;7.80;;;;;;;;;;5011892;28;20322;-54
2022/10/14 09:19:11;;;;;;;12.93;8.13;;;;;;;;;;5028547;28;20282;-55
2022/10/14 09:21:42;;;;;;;17.77;10.00;;;;;;;;;;5014701;28;20793;-52
2022/10/14 09:24:31;;;;;;;17.42;10.73;;;;;;;;;;5030217;28;20196;-55
2022/10/14 09:27:03;;;;;;;12.43;8.98;;;;;;;;;;5027545;28;20746;-56
2022/10/14 09:29:33;;;;;;;16.45;10.45;;;;;;;;;;5029752;28;20290;-55
2022/10/14 09:32:08;;;;;;;17.60;10.82;;;;;;;;;;5008946;28;20310;-56
2022/10/14 09:34:40;;;;;;;19.17;12.02;;;;;;;;;;5009167;28;20647;-54
2022/10/14 09:37:29;;;;;;;17.88;12.32;;;;;;;;;;4994436;28;20287;-56
2022/10/14 09:39:59;;;;;;;17.02;10.50;;;;;;;;;;5025532;28;20203;-56
2022/10/14 09:42:35;;;;;;;20.15;12.73;;;;;;;;;;4987394;28;20223;-56
2022/10/14 09:45:06;;;;;;;18.27;11.63;;;;;;;;;;5027679;28;20274;-56
2022/10/14 09:47:44;;;;;;;22.70;11.52;;;;;;;;;;5021143;28;20223;-56
2022/10/14 09:50:21;;;;;;;19.13;11.50;;;;;;;;;;5008588;28;20683;-55
2022/10/14 09:52:51;;;;;;;16.65;11.40;;;;;;;;;;5025746;28;20247;-55
2022/10/14 09:55:19;;;;;;;17.52;11.85;;;;;;;;;;5006391;28;20735;-55
2022/10/14 09:57:46;;;;;;;18.67;12.50;;;;;;;;;;5018730;28;20283;-54
2022/10/14 10:00:25;;;;;;;19.35;12.73;;;;;;;;;;4993153;28;20199;-56
2022/10/14 10:02:52;;;;;;;17.77;11.50;;;;;;;;;;5002577;28;20317;-56
2022/10/14 10:05:23;;;;;;;19.70;12.77;;;;;;;;;;5002577;28;20291;-53
2022/10/14 10:08:18;;;;;;;18.88;12.35;;;;;;;;;;5019819;28;20575;-56
2022/10/14 10:11:07;;;;;;;18.05;11.20;;;;;;;;;;5005154;28;20267;-53
2022/10/14 10:13:40;;;;;;;12.70;9.52;;;;;;;;;;5028738;28;20232;-55
2022/10/14 10:16:17;;;;;;;14.13;9.45;;;;;;;;;;5026987;28;20278;-56
2022/10/14 10:18:43;;;;;;;14.77;10.82;;;;;;;;;;5001339;28;20213;-54
2022/10/14 10:21:23;;;;;;;15.48;10.40;;;;;;;;;;5009881;28;20278;-56
2022/10/14 10:23:56;;;;;;;18.88;11.05;;;;;;;;;;5007755;28;20671;-56
2022/10/14 10:26:25;;;;;;;16.70;11.05;;;;;;;;;;5030587;28;20278;-57
2022/10/14 10:28:53;;;;;;;12.95;8.40;;;;;;;;;;5005934;28;20311;-56
2022/10/14 10:31:38;;;;;;;19.55;10.82;;;;;;;;;;5028395;28;20219;-56
2022/10/14 10:34:37;;;;;;;14.27;10.35;;;;;;;;;;5023200;28;20195;-56
2022/10/14 10:37:08;;;;;;;16.98;9.57;;;;;;;;;;5022339;28;20412;-56
2022/10/14 10:39:48;;;;;;;13.57;9.27;;;;;;;;;;5025587;28;20333;-55
2022/10/14 10:42:20;;;;;;;14.02;9.13;;;;;;;;;;5002331;28;20297;-56
2022/10/14 10:44:59;;;;;;;11.40;8.80;;;;;;;;;;5007007;28;20195;-56
2022/10/14 10:47:40;;;;;;;15.25;8.80;;;;;;;;;;5018926;28;20226;-56
2022/10/14 10:50:22;;;;;;;14.27;8.40;;;;;;;;;;5002741;28;20257;-55
2022/10/14 10:53:00;;;;;;;17.05;8.88;;;;;;;;;;5019770;28;20250;-56
2022/10/14 10:56:01;;;;;;;11.65;7.95;;;;;;;;;;5003073;28;20211;-56
2022/10/14 10:58:40;;;;;;;12.52;8.23;;;;;;;;;;5019590;28;20191;-56
2022/10/14 11:01:24;;;;;;;13.18;8.18;;;;;;;;;;5016175;28;20195;-56
2022/10/14 11:04:16;;;;;;;11.13;7.72;;;;;;;;;;5004211;28;20242;-56
2022/10/14 11:13:03;;;;;;;12.13;7.70;;;;;;;;;;5014740;28;20718;-55
2022/10/14 11:15:57;;;;;;;14.50;8.88;;;;;;;;;;5018217;28;20667;-55
2022/10/14 11:18:46;;;;;;;13.73;7.80;;;;;;;;;;5016904;28;20257;-56
2022/10/14 11:21:20;;;;;;;11.55;7.50;;;;;;;;;;5019559;28;20302;-55
2022/10/14 11:24:05;;;;;;;12.38;8.07;;;;;;;;;;5017227;28;20206;-55
2022/10/14 11:26:50;;;;;;;15.55;8.85;;;;;;;;;;5013241;28;20200;-55
2022/10/14 11:29:21;;;;;;;18.58;9.68;;;;;;;;;;5007676;28;20220;-55
2022/10/14 11:31:59;;;;;;;16.42;8.57;;;;;;;;;;5009909;28;20977;-55
2022/10/14 11:35:06;;;;;;;16.45;9.48;;;;;;;;;;5003599;28;20596;-55
2022/10/14 11:37:53;;;;;;;11.40;7.05;;;;;;;;;;5019802;28;20298;-55
2022/10/14 11:40:33;;;;;;;11.70;7.43;;;;;;;;;;5006823;28;20290;-55
2022/10/14 11:43:26;;;;;;;12.18;7.65;;;;;;;;;;5012629;28;20310;-55
2022/10/14 11:46:00;;;;;;;11.65;7.22;;;;;;;;;;5022418;28;20203;-55
2022/10/14 11:48:45;;;;;;;11.05;7.85;;;;;;;;;;5022050;28;20593;-55
2022/10/14 11:51:18;;;;;;;11.98;6.97;;;;;;;;;;5018908;28;20195;-56
2022/10/14 11:54:03;;;;;;;11.85;7.80;;;;;;;;;;5017225;28;20302;-55
2022/10/14 11:56:59;;;;;;;13.52;8.02;;;;;;;;;;5003684;28;20196;-56
2022/10/14 11:59:46;;;;;;;9.20;6.82;;;;;;;;;;5020749;28;20599;-55
2022/10/14 12:02:25;;;;;;;11.77;7.18;;;;;;;;;;5000462;28;20971;-55
2022/10/14 12:05:02;;;;;;;11.90;7.30;;;;;;;;;;5005047;28;20199;-56
2022/10/14 12:07:36;;;;;;;10.25;7.63;;;;;;;;;;5016651;28;20286;-54
2022/10/14 12:10:26;;;;;;;10.20;6.78;;;;;;;;;;5000139;28;20191;-52
2022/10/14 12:12:53;;;;;;;10.63;7.20;;;;;;;;;;4998409;28;20259;-52
2022/10/14 12:15:22;;;;;;;13.10;8.15;;;;;;;;;;5028619;28;20199;-53
2022/10/14 12:18:00;;;;;;;12.13;7.90;;;;;;;;;;5007202;28;20799;-51
2022/10/14 12:20:43;;;;;;;13.43;7.38;;;;;;;;;;5003939;28;20215;-53
2022/10/14 12:23:15;;;;;;;11.85;8.40;;;;;;;;;;5010290;28;20230;-55
2022/10/14 12:25:56;;;;;;;11.90;7.47;;;;;;;;;;5021962;28;20365;-55
2022/10/14 12:28:22;;;;;;;11.52;7.57;;;;;;;;;;5029059;28;20306;-53
2022/10/14 12:30:50;;;;;;;9.70;6.72;;;;;;;;;;5027346;28;20221;-55
2022/10/14 12:33:16;;;;;;;9.90;7.38;;;;;;;;;;5026210;28;20310;-54
2022/10/14 12:36:00;;;;;;;11.50;7.35;;;;;;;;;;5025924;28;20199;-53
2022/10/14 12:38:28;;;;;;;10.82;7.03;;;;;;;;;;5030141;28;20257;-51
2022/10/14 12:41:37;;;;;;;9.40;6.30;;;;;;;;;;5027793;28;20207;-52
2022/10/14 12:44:04;;;;;;;8.77;6.45;;;;;;;;;;5002410;28;20212;-56
2022/10/14 12:46:30;;;;;;;9.15;6.78;;;;;;;;;;5014118;28;20223;-56
2022/10/14 12:48:58;;;;;;;10.00;6.78;;;;;;;;;;5010777;28;20243;-57
2022/10/14 12:51:26;;;;;;;9.27;6.43;;;;;;;;;;5009614;28;20230;-54
2022/10/14 12:54:11;;;;;;;8.70;6.15;;;;;;;;;;5026672;28;20284;-56
2022/10/14 12:56:42;;;;;;;9.40;6.05;;;;;;;;;;5007549;28;20253;-57
2022/10/14 12:59:24;;;;;;;10.27;6.55;;;;;;;;;;5027679;28;20219;-56
2022/10/14 13:02:03;;;;;;;8.57;6.20;;;;;;;;;;5027627;28;20307;-56
2022/10/14 13:04:30;;;;;;;8.40;6.05;;;;;;;;;;5032608;28;20198;-55
2022/10/14 13:07:15;;;;;;;8.50;5.88;;;;;;;;;;5027379;28;20238;-56
2022/10/14 13:10:24;;;;;;;8.63;5.85;;;;;;;;;;5022828;28;20226;-56
2022/10/14 13:12:51;;;;;;;7.90;5.93;;;;;;;;;;4986927;28;20314;-56
2022/10/14 13:15:33;;;;;;;9.52;6.15;;;;;;;;;;5027831;28;20278;-56
2022/10/14 13:18:30;;;;;;;9.27;5.68;;;;;;;;;;5027986;28;20674;-56
2022/10/14 13:20:56;;;;;;;8.88;5.70;;;;;;;;;;5007231;28;20192;-56
2022/10/14 13:23:28;;;;;;;8.73;5.75;;;;;;;;;;5027338;28;20286;-56
2022/10/14 13:26:25;;;;;;;8.88;5.53;;;;;;;;;;5005999;28;20326;-56
2022/10/14 13:29:39;;;;;;;13.77;10.40;;;;;;;;;;5027985;28;20341;-56
2022/10/14 13:32:24;;;;;;;10.20;6.55;;;;;;;;;;5024736;28;20314;-57
2022/10/14 13:35:08;;;;;;;8.98;5.90;;;;;;;;;;5027711;28;20200;-56
2022/10/14 13:38:02;;;;;;;24.20;13.88;;;;;;;;;;5006632;28;20637;-57
2022/10/14 13:40:35;;;;;;;8.05;5.65;;;;;;;;;;5009525;28;20952;-55
2022/10/14 13:43:26;;;;;;;8.23;5.75;;;;;;;;;;5009078;28;20302;-56
2022/10/14 13:45:56;;;;;;;8.02;5.68;;;;;;;;;;5006596;28;20715;-56
2022/10/14 13:48:34;;;;;;;7.50;4.88;;;;;;;;;;5009329;28;20303;-57
2022/10/14 13:51:13;;;;;;;7.32;5.57;;;;;;;;;;5008795;28;20206;-56
2022/10/14 13:54:08;;;;;;;9.38;5.25;;;;;;;;;;5026030;28;20207;-54
2022/10/14 13:56:34;;;;;;;9.45;5.60;;;;;;;;;;5025721;28;20665;-57
2022/10/14 13:59:01;;;;;;;6.88;5.10;;;;;;;;;;5028082;28;20702;-56
2022/10/14 14:01:35;;;;;;;7.10;4.50;;;;;;;;;;5029376;28;20231;-56
2022/10/14 14:04:02;;;;;;;7.38;4.93;;;;;;;;;;5024843;28;20654;-56
2022/10/14 14:06:28;;;;;;;7.03;5.18;;;;;;;;;;5014131;28;20294;-56
2022/10/14 14:09:19;;;;;;;8.13;4.72;;;;;;;;;;5029336;28;20248;-56
2022/10/14 14:11:46;;;;;;;6.68;4.32;;;;;;;;;;5010313;28;20304;-56
2022/10/14 14:14:18;;;;;;;7.68;4.65;;;;;;;;;;5024368;28;20270;-56
2022/10/14 14:16:53;;;;;;;7.47;4.50;;;;;;;;;;5023989;28;20302;-56
2022/10/14 14:19:36;;;;;;;7.35;4.88;;;;;;;;;;5022678;28;20278;-56
2022/10/14 14:22:26;;;;;;;6.70;4.40;;;;;;;;;;5033745;28;20216;-56
2022/10/14 14:25:09;;;;;;;5.50;4.55;;;;;;;;;;5027721;28;20233;-55
2022/10/14 14:27:59;;;;;;;6.25;4.50;;;;;;;;;;5028433;28;22159;-55
2022/10/14 14:30:28;;;;;;;7.60;4.63;;;;;;;;;;5029074;28;20437;-56
2022/10/14 14:32:57;;;;;;;6.45;4.72;;;;;;;;;;5029936;28;20302;-56
2022/10/14 14:35:24;;;;;;;5.75;4.50;;;;;;;;;;5024839;28;20562;-56
2022/10/14 14:37:50;;;;;;;6.32;4.15;;;;;;;;;;5022038;28;20206;-56
2022/10/14 14:40:28;;;;;;;6.22;4.22;;;;;;;;;;5017933;28;20191;-56
2022/10/14 14:42:58;;;;;;;6.28;4.45;;;;;;;;;;5019100;28;22114;-55
2022/10/14 14:45:31;;;;;;;6.18;4.32;;;;;;;;;;5020683;28;20286;-55
2022/10/14 14:48:01;;;;;;;6.68;4.90;;;;;;;;;;5017559;28;20277;-56
2022/10/14 14:50:31;;;;;;;6.47;4.40;;;;;;;;;;5020591;28;20221;-55
2022/10/14 14:53:02;;;;;;;6.03;4.03;;;;;;;;;;5004252;28;20230;-56
2022/10/14 14:55:50;;;;;;;10.48;7.65;;;;;;;;;;5017567;28;20277;-56
2022/10/14 14:58:20;;;;;;;6.57;4.78;;;;;;;;;;5017801;28;20298;-55
2022/10/14 15:00:48;;;;;;;6.38;4.68;;;;;;;;;;5015855;28;20207;-54
2022/10/14 15:03:15;;;;;;;6.32;4.55;;;;;;;;;;5003702;28;20733;-56
2022/10/14 15:05:49;;;;;;;7.72;4.20;;;;;;;;;;5015296;28;20559;-56